Time;durP1;ratioP1;P1;durP2;ratioP2;P2;SDS_P1;SDS_P2;PMS_P1;PMS_P2;Temp;Humidity;BMP_temperature;BMP_pressure;BME280_temperature;BME280_humidity;BME280_pressure;Samples;Min_cycle;Max_cycle;Signal;HPM_P1;HPM_P2
2023/06/16 00:01:22;;;;;;;5.15;2.95;;;;;;;18.05;60.18;99376.78;4408908;32;20121;-85
2023/06/16 00:03:49;;;;;;;4.60;3.37;;;;;;;18.04;60.18;99372.47;4409600;32;20097;-84
2023/06/16 00:06:15;;;;;;;3.92;3.08;;;;;;;18.17;60.19;99382.97;4422605;32;20106;-86
2023/06/16 00:08:45;;;;;;;5.20;3.20;;;;;;;18.34;60.20;99372.97;4423081;32;20124;-85
2023/06/16 00:11:12;;;;;;;4.68;3.53;;;;;;;18.13;60.19;99381.50;4423134;32;20218;-85
2023/06/16 00:13:37;;;;;;;7.12;3.33;;;;;;;18.09;60.18;99375.63;4408346;32;20567;-85
2023/06/16 00:16:02;;;;;;;10.68;3.67;;;;;;;18.28;60.19;99375.19;4423103;32;20124;-86
2023/06/16 00:18:29;;;;;;;4.35;3.25;;;;;;;18.46;60.21;99373.06;4423418;32;20120;-85
2023/06/16 00:20:57;;;;;;;4.95;3.10;;;;;;;18.62;60.22;99374.53;4422793;32;20435;-86
2023/06/16 00:23:23;;;;;;;5.30;3.37;;;;;;;18.59;60.20;99369.44;4423080;32;20085;-84
2023/06/16 00:25:48;;;;;;;4.90;3.25;;;;;;;18.33;60.19;99368.66;4422894;32;20169;-85
2023/06/16 00:28:14;;;;;;;4.25;3.15;;;;;;;18.52;60.21;99362.09;4396714;32;20128;-85
2023/06/16 00:30:39;;;;;;;6.53;3.53;;;;;;;18.17;60.19;99361.91;4422451;32;20081;-86
2023/06/16 00:33:05;;;;;;;6.18;3.42;;;;;;;18.20;60.18;99362.53;4423131;32;20130;-86
2023/06/16 00:35:31;;;;;;;5.18;3.45;;;;;;;18.18;60.19;99371.50;4423049;32;20116;-86
2023/06/16 00:37:56;;;;;;;4.75;3.25;;;;;;;18.21;60.19;99363.38;4393698;32;20120;-86
2023/06/16 00:40:22;;;;;;;4.65;3.03;;;;;;;18.14;60.18;99362.97;4420427;32;20133;-86
2023/06/16 00:42:47;;;;;;;4.97;3.62;;;;;;;18.22;60.18;99360.66;4409161;32;20097;-86
2023/06/16 00:45:13;;;;;;;7.93;3.75;;;;;;;18.25;60.19;99364.88;4393205;32;26271;-86
2023/06/16 00:47:38;;;;;;;5.05;3.80;;;;;;;18.30;60.20;99354.84;4415058;32;24256;-86
2023/06/16 00:50:04;;;;;;;6.00;3.08;;;;;;;18.24;60.20;99356.13;4422727;32;20180;-86
2023/06/16 00:52:31;;;;;;;8.15;4.05;;;;;;;18.41;60.20;99358.41;4406532;32;20101;-86
2023/06/16 00:54:56;;;;;;;6.70;3.97;;;;;;;18.37;60.20;99354.31;4420556;32;20131;-86
2023/06/16 00:57:22;;;;;;;6.05;4.00;;;;;;;18.18;60.19;99356.53;4408568;32;20405;-86
2023/06/16 00:59:47;;;;;;;4.80;3.50;;;;;;;18.39;60.20;99349.75;4408586;32;20098;-85
2023/06/16 01:02:13;;;;;;;4.40;3.28;;;;;;;18.73;60.21;99343.94;4406266;32;20086;-85
2023/06/16 01:04:39;;;;;;;5.75;3.80;;;;;;;18.44;60.20;99351.22;4406265;32;20125;-85
2023/06/16 01:07:20;;;;;;;5.00;3.40;;;;;;;18.46;60.21;99339.66;4422932;32;20097;-85
2023/06/16 01:10:27;;;;;;;7.87;3.95;;;;;;;18.40;60.20;99346.16;4406630;32;20443;-85
2023/06/16 01:13:07;;;;;;;5.45;3.53;;;;;;;18.46;60.21;99339.66;4382221;32;20142;-85
2023/06/16 01:15:33;;;;;;;5.78;4.03;;;;;;;18.69;60.21;99348.56;4417774;32;20093;-85
2023/06/16 01:17:59;;;;;;;10.27;3.75;;;;;;;18.41;60.20;99342.59;4396152;32;20994;-85
2023/06/16 01:20:41;;;;;;;8.23;3.85;;;;;;;18.57;60.21;99342.34;4394097;32;20532;-85
2023/06/16 01:23:28;;;;;;;5.10;3.75;;;;;;;18.70;60.22;99335.28;4414617;32;20116;-85
2023/06/16 01:25:56;;;;;;;4.75;2.78;;;;;;;18.73;60.21;99331.59;4417651;32;20094;-86
2023/06/16 01:28:24;;;;;;;5.07;3.15;;;;;;;18.58;60.21;99330.00;4406602;32;20132;-85
2023/06/16 01:30:50;;;;;;;9.05;3.60;;;;;;;18.68;60.21;99326.62;4395875;32;20163;-85
2023/06/16 01:33:16;;;;;;;5.25;3.37;;;;;;;18.80;60.22;99326.72;4393836;32;20092;-85
2023/06/16 01:35:41;;;;;;;7.12;3.80;;;;;;;18.73;60.21;99328.13;4405971;32;20124;-86
2023/06/16 01:38:07;;;;;;;7.30;3.55;;;;;;;19.11;60.24;99318.22;4400265;32;25079;-85
2023/06/16 01:40:32;;;;;;;10.05;3.78;;;;;;;18.83;60.22;99316.78;4380462;32;20429;-85
2023/06/16 01:42:57;;;;;;;8.10;3.72;;;;;;;18.73;60.21;99320.22;4390425;32;20237;-85
2023/06/16 01:45:23;;;;;;;7.32;4.03;;;;;;;18.96;60.23;99314.09;4395838;32;20113;-85
2023/06/16 01:47:48;;;;;;;6.07;4.20;;;;;;;18.83;60.22;99314.13;4383743;32;20169;-85
2023/06/16 01:50:14;;;;;;;7.28;4.03;;;;;;;18.89;60.22;99320.75;4393285;32;20124;-85
2023/06/16 01:52:39;;;;;;;9.00;4.32;;;;;;;18.99;60.22;99317.34;4400195;32;20138;-85
2023/06/16 01:55:05;;;;;;;8.55;3.53;;;;;;;18.93;60.22;99317.81;4407703;32;20121;-84
2023/06/16 01:57:30;;;;;;;6.72;4.12;;;;;;;18.92;60.22;99312.63;4406187;32;20102;-85
2023/06/16 02:00:12;;;;;;;5.93;4.00;;;;;;;18.89;60.22;99311.03;4407252;32;20125;-85
2023/06/16 02:02:40;;;;;;;8.38;4.10;;;;;;;18.78;60.21;99313.63;4408453;32;20439;-85
2023/06/16 02:05:05;;;;;;;11.10;4.35;;;;;;;18.79;60.22;99319.75;4393302;32;20129;-84
2023/06/16 02:07:34;;;;;;;8.25;3.95;;;;;;;18.78;60.22;99315.44;4375855;32;20142;-86
2023/06/16 02:09:59;;;;;;;6.80;4.30;;;;;;;18.91;60.22;99311.78;4396425;32;20128;-85
2023/06/16 02:12:25;;;;;;;6.87;4.43;;;;;;;18.70;60.21;99311.56;4400774;32;25613;-85
2023/06/16 02:14:50;;;;;;;10.00;4.60;;;;;;;18.63;60.21;99315.56;4392743;32;22953;-85
2023/06/16 02:17:16;;;;;;;7.72;4.20;;;;;;;18.80;60.21;99314.37;4403637;32;20451;-86
2023/06/16 02:19:43;;;;;;;8.10;4.57;;;;;;;18.64;60.21;99313.78;4405431;32;20499;-85
2023/06/16 02:22:08;;;;;;;6.85;3.80;;;;;;;18.55;60.21;99314.44;4417256;32;20384;-86
2023/06/16 02:24:33;;;;;;;5.82;4.32;;;;;;;18.53;60.21;99314.53;4422547;32;20101;-86
2023/06/16 02:26:59;;;;;;;9.27;4.15;;;;;;;18.48;60.20;99321.94;4408129;32;20145;-85
2023/06/16 02:29:24;;;;;;;5.97;3.45;;;;;;;18.75;60.21;99319.12;4395647;32;20117;-85
2023/06/16 02:31:50;;;;;;;7.37;4.47;;;;;;;18.87;60.22;99312.97;4403024;32;20101;-85
2023/06/16 02:34:15;;;;;;;8.77;4.40;;;;;;;18.99;60.22;99314.72;4392913;32;20439;-85
2023/06/16 02:36:41;;;;;;;7.22;3.72;;;;;;;18.95;60.23;99320.34;4417445;32;20147;-85
2023/06/16 02:39:07;;;;;;;6.65;4.80;;;;;;;18.66;60.21;99310.06;4424038;32;20113;-84
2023/06/16 02:41:33;;;;;;;6.18;3.97;;;;;;;18.53;60.19;99311.06;4424271;32;20133;-85
2023/06/16 02:43:58;;;;;;;7.68;4.35;;;;;;;18.61;60.21;99309.53;4394472;32;20216;-85
2023/06/16 02:46:24;;;;;;;8.50;4.30;;;;;;;18.49;60.20;99312.22;4401784;32;23607;-85
2023/06/16 02:48:49;;;;;;;7.20;4.43;;;;;;;18.52;60.20;99315.50;4423711;32;20154;-85
2023/06/16 02:51:15;;;;;;;5.85;4.22;;;;;;;18.61;60.21;99312.19;4407554;32;20145;-86
2023/06/16 02:53:41;;;;;;;5.78;3.72;;;;;;;18.62;60.21;99305.09;4423343;32;20082;-86
2023/06/16 02:56:10;;;;;;;5.60;3.87;;;;;;;18.44;60.20;99312.53;4407492;32;20608;-86
2023/06/16 02:58:35;;;;;;;8.00;3.72;;;;;;;18.44;60.20;99309.91;4423747;32;20105;-86
2023/06/16 03:01:01;;;;;;;6.22;3.78;;;;;;;18.62;60.21;99305.97;4397071;32;20142;-85
2023/06/16 03:03:30;;;;;;;5.25;3.60;;;;;;;18.73;60.21;99307.87;4423977;32;20129;-85
2023/06/16 03:05:57;;;;;;;5.70;4.03;;;;;;;18.87;60.22;99310.31;4423944;32;20089;-85
2023/06/16 03:08:22;;;;;;;6.47;4.00;;;;;;;18.84;60.23;99309.72;4423863;32;20098;-86
2023/06/16 03:10:48;;;;;;;10.02;4.35;;;;;;;18.82;60.22;99315.09;4408924;32;35543;-85
2023/06/16 03:13:13;;;;;;;7.07;3.72;;;;;;;18.47;60.20;99311.50;4423786;32;20110;-86
2023/06/16 03:15:39;;;;;;;6.03;4.25;;;;;;;18.40;60.20;99306.66;4394824;32;20137;-86
2023/06/16 03:18:05;;;;;;;6.00;4.10;;;;;;;18.37;60.19;99313.94;4394773;32;20089;-86
2023/06/16 03:20:31;;;;;;;6.90;5.12;;;;;;;18.66;60.20;99303.97;4390692;32;20477;-85
2023/06/16 03:22:56;;;;;;;8.52;4.80;;;;;;;18.57;60.21;99307.25;4423799;32;20102;-85
2023/06/16 03:25:21;;;;;;;6.12;3.92;;;;;;;18.69;60.21;99314.28;4407710;32;20137;-86
2023/06/16 03:27:47;;;;;;;7.47;5.10;;;;;;;18.40;60.20;99311.06;4407127;32;20418;-85
2023/06/16 03:30:13;;;;;;;7.18;4.47;;;;;;;18.44;60.20;99315.16;4405033;32;20101;-85
2023/06/16 03:32:38;;;;;;;8.13;4.43;;;;;;;18.72;60.21;99313.25;4423771;32;20156;-85
2023/06/16 03:35:06;;;;;;;9.30;4.28;;;;;;;18.58;60.21;99311.56;4409704;32;20525;-85
2023/06/16 03:37:32;;;;;;;9.35;4.60;;;;;;;18.47;60.21;99316.78;4423747;32;20115;-85
2023/06/16 03:40:04;;;;;;;5.97;4.07;;;;;;;18.52;60.20;99314.66;4396648;32;20082;-85
2023/06/16 03:42:30;;;;;;;5.10;3.78;;;;;;;18.59;60.20;99314.09;4423673;32;20086;-86
2023/06/16 03:44:55;;;;;;;6.10;4.18;;;;;;;18.84;60.23;99314.97;4413041;32;22987;-86
2023/06/16 03:47:24;;;;;;;6.32;4.00;;;;;;;18.88;60.22;99306.72;4422590;32;27298;-85
2023/06/16 03:49:49;;;;;;;9.38;4.12;;;;;;;18.70;60.22;99316.00;4407765;32;20090;-85
2023/06/16 03:52:15;;;;;;;7.32;4.18;;;;;;;18.98;60.22;99312.19;4423686;32;20263;-85
2023/06/16 03:54:40;;;;;;;6.72;3.90;;;;;;;18.78;60.22;99307.53;4411955;32;20154;-85
2023/06/16 03:57:06;;;;;;;5.95;4.20;;;;;;;18.68;60.20;99307.31;4415025;32;20478;-85
2023/06/16 03:59:31;;;;;;;6.15;3.80;;;;;;;18.78;60.22;99312.78;4408297;32;20110;-85
2023/06/16 04:01:57;;;;;;;7.78;4.35;;;;;;;18.75;60.21;99307.75;4423337;32;20132;-85
2023/06/16 04:04:25;;;;;;;7.12;4.12;;;;;;;18.89;60.22;99308.41;4409502;32;20128;-85
2023/06/16 04:06:51;;;;;;;10.35;4.50;;;;;;;19.01;60.23;99304.88;4406852;32;20121;-84
2023/06/16 04:09:16;;;;;;;7.37;4.57;;;;;;;19.19;60.24;99300.06;4419061;32;20116;-85
2023/06/16 04:11:42;;;;;;;9.02;4.65;;;;;;;19.21;60.23;99295.50;4423290;32;20690;-85
2023/06/16 04:14:09;;;;;;;6.65;4.72;;;;;;;19.15;60.23;99303.84;4422748;32;20118;-86
2023/06/16 04:16:34;;;;;;;6.78;4.30;;;;;;;19.13;60.23;99305.75;4409588;32;20120;-84
2023/06/16 04:19:02;;;;;;;6.20;3.97;;;;;;;19.12;60.23;99306.72;4395815;32;20098;-84
2023/06/16 04:21:27;;;;;;;8.75;5.47;;;;;;;19.33;60.25;99306.91;4413975;32;20530;-85
2023/06/16 04:23:53;;;;;;;6.75;4.43;;;;;;;18.97;60.22;99311.34;4422826;32;20113;-85
2023/06/16 04:26:22;;;;;;;10.57;5.20;;;;;;;19.15;60.23;99313.56;4394023;32;20121;-85
2023/06/16 04:28:54;;;;;;;7.57;5.28;;;;;;;18.91;60.21;99310.94;4393661;32;20524;-85
2023/06/16 04:31:21;;;;;;;7.72;4.85;;;;;;;19.06;60.23;99311.62;4409128;32;20406;-86
2023/06/16 04:33:47;;;;;;;12.02;4.75;;;;;;;19.38;60.25;99307.41;4408749;32;20195;-85
2023/06/16 04:36:13;;;;;;;6.97;4.65;;;;;;;19.44;60.25;99309.59;4409300;32;20121;-84
2023/06/16 04:38:39;;;;;;;8.93;4.57;;;;;;;19.67;60.26;99302.63;4408673;32;20106;-84
2023/06/16 04:41:05;;;;;;;7.05;4.62;;;;;;;19.72;60.27;99311.00;4423411;32;20489;-84
2023/06/16 04:43:30;;;;;;;7.72;4.72;;;;;;;19.99;60.28;99309.84;4383514;32;20110;-84
2023/06/16 04:45:57;;;;;;;7.53;4.43;;;;;;;19.96;60.28;99299.53;4406611;32;20107;-85
2023/06/16 04:48:23;;;;;;;5.10;3.70;;;;;;;20.00;60.28;99293.88;4406333;32;20090;-86
2023/06/16 04:50:48;;;;;;;8.07;4.53;;;;;;;20.17;60.29;99295.19;4408690;32;26314;-85
2023/06/16 04:53:13;;;;;;;6.68;4.15;;;;;;;20.38;60.29;99290.03;4408654;32;20134;-85
2023/06/16 04:55:39;;;;;;;6.30;3.95;;;;;;;20.38;60.29;99301.44;4423057;32;20445;-85
2023/06/16 04:58:04;;;;;;;5.18;4.32;;;;;;;20.67;60.31;99295.62;4395889;32;20144;-85
2023/06/16 05:00:30;;;;;;;8.52;3.92;;;;;;;20.64;60.31;99293.25;4422549;32;20441;-85
2023/06/16 05:02:56;;;;;;;6.70;4.03;;;;;;;20.75;60.32;99296.69;4422979;32;20136;-85
2023/06/16 05:05:22;;;;;;;9.40;4.70;;;;;;;20.83;60.32;99307.50;4406575;32;20111;-85
2023/06/16 05:07:47;;;;;;;5.90;4.50;;;;;;;20.88;60.33;99307.13;4409417;32;20415;-86
2023/06/16 05:10:12;;;;;;;8.15;4.12;;;;;;;20.94;60.33;99303.97;4422927;32;20090;-86
2023/06/16 05:12:38;;;;;;;6.50;3.92;;;;;;;21.08;60.33;99300.22;4408487;32;20137;-85
2023/06/16 05:15:04;;;;;;;6.03;4.00;;;;;;;21.01;60.34;99299.00;4423183;32;20093;-85
2023/06/16 05:17:30;;;;;;;5.55;3.75;;;;;;;21.29;60.34;99294.94;4422303;32;20069;-85
2023/06/16 05:19:55;;;;;;;5.22;3.75;;;;;;;21.19;60.34;99301.94;4422840;32;20157;-85
2023/06/16 05:22:23;;;;;;;6.40;4.03;;;;;;;21.39;60.35;99306.47;4394591;32;20169;-85
2023/06/16 05:24:51;;;;;;;6.43;3.80;;;;;;;21.38;60.35;99304.78;4422797;32;20116;-85
2023/06/16 05:27:17;;;;;;;8.80;4.68;;;;;;;21.40;60.36;99308.16;4395314;32;20086;-85
2023/06/16 05:29:42;;;;;;;6.65;3.97;;;;;;;21.48;60.36;99305.69;4422413;32;20157;-85
2023/06/16 05:32:07;;;;;;;7.18;4.10;;;;;;;21.56;60.37;99305.06;4421984;32;25097;-85
2023/06/16 05:34:35;;;;;;;9.57;4.60;;;;;;;21.63;60.37;99311.50;4422330;32;20101;-85
2023/06/16 05:37:00;;;;;;;8.82;4.07;;;;;;;21.71;60.37;99309.88;4407567;32;20090;-85
2023/06/16 05:39:25;;;;;;;5.82;4.32;;;;;;;21.80;60.37;99310.09;4406397;32;20173;-86
2023/06/16 05:41:51;;;;;;;6.28;3.97;;;;;;;21.88;60.38;99305.78;4419015;32;20126;-85
2023/06/16 05:44:16;;;;;;;9.05;4.65;;;;;;;21.97;60.38;99306.81;4408404;32;20122;-85
2023/06/16 05:46:42;;;;;;;8.43;4.57;;;;;;;22.13;60.39;99314.31;4407603;32;20459;-85
2023/06/16 05:49:07;;;;;;;6.28;4.07;;;;;;;22.09;60.38;99318.22;4422781;32;20134;-85
2023/06/16 05:51:32;;;;;;;7.22;4.30;;;;;;;22.02;60.38;99307.28;4422696;32;20095;-85
2023/06/16 05:53:58;;;;;;;10.35;4.65;;;;;;;22.15;60.39;99313.22;4422082;32;24136;-85
2023/06/16 05:56:23;;;;;;;6.15;4.85;;;;;;;22.31;60.39;99310.06;4408586;32;20101;-83
2023/06/16 05:58:49;;;;;;;8.75;5.03;;;;;;;22.07;60.39;99313.03;4422693;32;20109;-85
2023/06/16 06:01:14;;;;;;;8.20;4.97;;;;;;;22.07;60.39;99317.50;4407219;32;20138;-85
2023/06/16 06:03:46;;;;;;;8.05;5.30;;;;;;;21.73;60.37;99310.59;4422397;32;20136;-85
2023/06/16 06:06:12;;;;;;;8.07;5.30;;;;;;;21.43;60.36;99321.13;4407601;32;20145;-85
2023/06/16 06:08:37;;;;;;;9.35;5.28;;;;;;;21.42;60.35;99322.09;4422119;32;20484;-85
2023/06/16 06:11:06;;;;;;;7.65;5.37;;;;;;;21.43;60.36;99323.78;4421694;32;20098;-84
2023/06/16 06:13:31;;;;;;;8.45;5.12;;;;;;;21.37;60.35;99321.66;4393578;32;20159;-85
2023/06/16 06:15:57;;;;;;;9.52;4.90;;;;;;;21.37;60.34;99321.66;4405389;32;20593;-85
2023/06/16 06:18:23;;;;;;;9.13;4.93;;;;;;;21.53;60.36;99322.06;4421787;32;20094;-85
2023/06/16 06:20:49;;;;;;;7.37;4.53;;;;;;;21.57;60.37;99322.63;4407957;32;20192;-84
2023/06/16 06:23:15;;;;;;;14.32;5.53;;;;;;;21.58;60.37;99325.16;4408075;32;20105;-85
2023/06/16 06:25:42;;;;;;;10.52;4.82;;;;;;;21.67;60.36;99320.88;4407669;32;20148;-85
2023/06/16 06:28:07;;;;;;;8.30;3.83;;;;;;;21.83;60.38;99317.78;4407752;32;20128;-85
2023/06/16 06:30:33;;;;;;;7.50;4.90;;;;;;;22.03;60.40;99327.50;4395130;32;20106;-85
2023/06/16 06:32:58;;;;;;;8.00;5.37;;;;;;;21.95;60.39;99328.13;4405101;32;20129;-85
2023/06/16 06:35:23;;;;;;;10.50;4.87;;;;;;;21.91;60.37;99326.72;4405289;32;20147;-85
2023/06/16 06:37:49;;;;;;;10.65;4.78;;;;;;;21.90;60.38;99332.16;4382322;32;27596;-85
2023/06/16 06:40:15;;;;;;;12.13;4.72;;;;;;;21.98;60.38;99327.88;4394853;32;21901;-85
2023/06/16 06:42:40;;;;;;;8.63;5.22;;;;;;;21.88;60.38;99334.09;4421909;32;20191;-85
2023/06/16 06:45:08;;;;;;;8.75;5.00;;;;;;;22.02;60.38;99344.38;4407350;32;20098;-84
2023/06/16 06:47:33;;;;;;;7.75;4.40;;;;;;;21.90;60.38;99337.47;4405574;32;20506;-85
2023/06/16 06:49:58;;;;;;;7.72;5.18;;;;;;;21.74;60.37;99344.06;4405192;32;20177;-85
2023/06/16 06:52:24;;;;;;;8.40;5.53;;;;;;;21.78;60.37;99341.16;4408136;32;20105;-84
2023/06/16 06:54:50;;;;;;;13.85;4.95;;;;;;;21.63;60.37;99346.78;4407859;32;20113;-85
2023/06/16 06:57:15;;;;;;;8.90;5.55;;;;;;;21.52;60.36;99345.97;4408109;32;20102;-85
2023/06/16 06:59:41;;;;;;;9.68;4.80;;;;;;;21.57;60.37;99344.66;4421699;32;20133;-85
2023/06/16 07:02:06;;;;;;;9.32;5.22;;;;;;;21.61;60.36;99350.53;4421896;32;20434;-85
2023/06/16 07:04:32;;;;;;;8.20;5.12;;;;;;;21.74;60.37;99346.69;4421670;32;20145;-85
2023/06/16 07:06:58;;;;;;;9.52;5.55;;;;;;;22.01;60.38;99342.69;4407904;32;20118;-84
2023/06/16 07:09:26;;;;;;;10.55;5.55;;;;;;;22.46;60.40;99343.19;4420871;32;20366;-85
2023/06/16 07:11:51;;;;;;;7.40;4.80;;;;;;;22.60;60.42;99337.50;4392771;32;20189;-85
2023/06/16 07:14:17;;;;;;;7.93;4.87;;;;;;;22.64;60.42;99346.03;4418218;32;20473;-85
2023/06/16 07:16:42;;;;;;;10.93;5.62;;;;;;;22.73;60.43;99334.62;4407414;32;20161;-85
2023/06/16 07:19:07;;;;;;;10.18;5.43;;;;;;;22.63;60.41;99344.38;4421523;32;20169;-85
2023/06/16 07:21:33;;;;;;;8.27;5.30;;;;;;;22.36;60.41;99352.94;4392077;32;20497;-85
2023/06/16 07:23:58;;;;;;;7.82;4.82;;;;;;;22.53;60.41;99348.81;4418933;32;20558;-84
2023/06/16 07:26:24;;;;;;;9.07;5.43;;;;;;;22.38;60.40;99350.97;4422930;32;20134;-83
2023/06/16 07:28:49;;;;;;;9.85;5.03;;;;;;;22.32;60.40;99347.06;4407999;32;20158;-84
2023/06/16 07:31:15;;;;;;;7.65;5.22;;;;;;;22.31;60.40;99355.16;4406894;32;20086;-85
2023/06/16 07:33:41;;;;;;;9.93;5.90;;;;;;;22.42;60.41;99352.38;4419602;32;20825;-85
2023/06/16 07:36:06;;;;;;;7.22;5.37;;;;;;;22.67;60.42;99354.56;4423331;32;20490;-85
2023/06/16 07:38:32;;;;;;;8.30;4.85;;;;;;;22.79;60.42;99352.66;4395502;32;20152;-85
2023/06/16 07:40:57;;;;;;;7.93;5.57;;;;;;;22.83;60.43;99355.91;4394478;32;20105;-84
2023/06/16 07:43:23;;;;;;;8.60;5.18;;;;;;;22.78;60.42;99356.28;4405126;32;23385;-85
2023/06/16 07:45:50;;;;;;;10.68;5.03;;;;;;;23.14;60.44;99346.84;4409646;32;20409;-85
2023/06/16 07:48:16;;;;;;;8.77;5.40;;;;;;;23.41;60.45;99340.00;4423418;32;20145;-84
2023/06/16 07:50:41;;;;;;;12.18;6.05;;;;;;;23.40;60.45;99346.31;4409622;32;20167;-84
2023/06/16 07:53:07;;;;;;;9.98;5.93;;;;;;;23.39;60.45;99341.97;4396236;32;20082;-85
2023/06/16 07:55:32;;;;;;;10.27;5.97;;;;;;;23.57;60.47;99348.28;4406913;32;20121;-85
2023/06/16 07:57:58;;;;;;;8.68;5.62;;;;;;;23.47;60.46;99345.63;4405932;32;20510;-85
2023/06/16 08:00:23;;;;;;;10.57;5.28;;;;;;;23.71;60.47;99336.41;4423425;32;20165;-85
2023/06/16 08:02:50;;;;;;;11.45;5.85;;;;;;;24.10;60.49;99343.28;4409163;32;20173;-85
2023/06/16 08:05:16;;;;;;;8.40;5.43;;;;;;;24.35;60.50;99344.47;4422136;32;20517;-84
2023/06/16 08:07:42;;;;;;;7.78;5.57;;;;;;;24.27;60.50;99343.50;4409387;32;20094;-86
2023/06/16 08:10:08;;;;;;;12.43;5.68;;;;;;;24.55;60.51;99336.41;4406612;32;20117;-86
2023/06/16 08:12:34;;;;;;;6.85;4.72;;;;;;;24.67;60.51;99328.09;4403558;32;20116;-86
2023/06/16 08:14:59;;;;;;;8.43;4.43;;;;;;;24.68;60.53;99331.59;4423389;32;20098;-85
2023/06/16 08:17:25;;;;;;;5.57;4.55;;;;;;;24.92;60.53;99331.84;4406499;32;37398;-84
2023/06/16 08:19:52;;;;;;;8.15;4.43;;;;;;;25.14;60.55;99322.63;4409171;32;20168;-86
2023/06/16 08:22:18;;;;;;;5.47;3.75;;;;;;;25.43;60.56;99325.03;4423113;32;20121;-86
2023/06/16 08:24:43;;;;;;;7.87;4.20;;;;;;;25.67;60.57;99325.25;4423189;32;20394;-87
2023/06/16 08:27:08;;;;;;;6.70;3.75;;;;;;;25.82;60.58;99330.03;4422370;32;20532;-84
2023/06/16 08:29:34;;;;;;;5.80;4.40;;;;;;;25.84;60.58;99326.19;4423145;32;20153;-85
2023/06/16 08:32:00;;;;;;;4.90;3.60;;;;;;;25.95;60.58;99328.59;4422175;32;31382;-86
2023/06/16 08:34:25;;;;;;;7.15;4.05;;;;;;;26.13;60.60;99322.37;4405916;32;20132;-87
2023/06/16 08:36:51;;;;;;;5.97;4.25;;;;;;;26.38;60.61;99316.19;4404727;32;20118;-84
2023/06/16 08:39:17;;;;;;;4.25;3.33;;;;;;;26.80;60.63;99318.84;4408491;32;27135;-85
2023/06/16 08:41:42;;;;;;;6.10;3.83;;;;;;;26.99;60.64;99312.41;4423048;32;20150;-84
2023/06/16 08:44:08;;;;;;;7.50;4.15;;;;;;;27.32;60.66;99315.09;4409173;32;20102;-85
2023/06/16 08:46:33;;;;;;;7.87;4.22;;;;;;;27.65;60.67;99314.09;4394527;32;20095;-85
2023/06/16 08:48:59;;;;;;;6.72;4.45;;;;;;;27.82;60.69;99320.28;4406530;32;20457;-86
2023/06/16 08:51:24;;;;;;;5.95;4.10;;;;;;;28.00;60.69;99315.56;4404694;32;20255;-85
2023/06/16 08:53:50;;;;;;;7.85;5.07;;;;;;;27.96;60.69;99305.38;4406441;32;20117;-85
2023/06/16 08:56:17;;;;;;;6.20;4.80;;;;;;;28.24;60.71;99308.47;4403200;32;20462;-86
2023/06/16 08:58:43;;;;;;;7.00;4.75;;;;;;;28.32;60.71;99301.25;4393903;32;20371;-87
2023/06/16 09:01:08;;;;;;;10.18;4.72;;;;;;;28.31;60.72;99306.78;4404764;32;20149;-86
2023/06/16 09:03:34;;;;;;;6.68;4.97;;;;;;;27.76;60.68;99308.41;4408518;32;22194;-86
2023/06/16 09:06:00;;;;;;;7.30;4.87;;;;;;;28.07;60.70;99307.66;4422665;32;20118;-86
2023/06/16 09:08:26;;;;;;;9.85;5.30;;;;;;;28.04;60.70;99313.38;4406438;32;20120;-85
2023/06/16 09:10:57;;;;;;;4.95;4.30;;;;;;;27.51;60.67;99312.94;4404269;32;20430;-85
2023/06/16 09:13:24;;;;;;;6.97;4.30;;;;;;;27.52;60.68;99306.56;4393990;32;20151;-86
2023/06/16 09:15:49;;;;;;;5.32;4.20;;;;;;;27.44;60.67;99317.25;4390979;32;20098;-85
2023/06/16 09:18:15;;;;;;;5.80;4.03;;;;;;;27.34;60.67;99307.75;4422706;32;20172;-87
2023/06/16 09:20:51;;;;;;;7.15;4.20;;;;;;;27.34;60.67;99318.44;4407156;32;20082;-86
2023/06/16 09:23:30;;;;;;;8.13;4.93;;;;;;;27.66;60.69;99313.09;4409600;32;20106;-87
2023/06/16 09:25:55;;;;;;;10.00;4.72;;;;;;;27.66;60.68;99310.41;4394515;32;20098;-87
2023/06/16 09:28:32;;;;;;;7.75;4.93;;;;;;;27.55;60.67;99305.41;4397631;32;20089;-85
2023/06/16 09:31:05;;;;;;;6.62;4.40;;;;;;;27.40;60.67;99312.41;4405299;32;20176;-85
2023/06/16 09:33:30;;;;;;;6.93;4.80;;;;;;;27.58;60.67;99310.41;4403629;32;20159;-86
2023/06/16 09:35:57;;;;;;;10.75;4.82;;;;;;;27.51;60.67;99310.25;4405828;32;20150;-86
2023/06/16 09:38:23;;;;;;;6.07;4.60;;;;;;;27.59;60.67;99308.56;4401235;32;20140;-87
2023/06/16 09:40:48;;;;;;;6.25;4.55;;;;;;;27.34;60.67;99308.56;4397747;32;29515;-86
2023/06/16 09:43:13;;;;;;;8.45;3.97;;;;;;;27.53;60.68;99308.25;4392834;32;26368;-86
2023/06/16 09:45:39;;;;;;;7.93;4.15;;;;;;;27.95;60.69;99301.03;4395444;32;20165;-87
2023/06/16 09:48:05;;;;;;;7.87;4.60;;;;;;;27.76;60.69;99304.91;4392557;32;20624;-86
2023/06/16 09:50:31;;;;;;;6.75;4.22;;;;;;;27.55;60.67;99301.88;4380847;32;20093;-86
2023/06/16 09:52:57;;;;;;;7.95;4.32;;;;;;;27.58;60.67;99297.03;4416452;32;20128;-85
2023/06/16 09:55:26;;;;;;;5.20;3.75;;;;;;;27.61;60.68;99291.34;4393374;32;20114;-85
2023/06/16 09:57:51;;;;;;;9.07;4.20;;;;;;;27.92;60.70;99291.50;4394588;32;20097;-86
2023/06/16 10:00:17;;;;;;;5.55;4.57;;;;;;;28.08;60.70;99287.94;4392699;32;22012;-85
2023/06/16 10:02:43;;;;;;;10.57;4.70;;;;;;;28.00;60.70;99288.81;4407047;32;20107;-86
2023/06/16 10:05:09;;;;;;;4.95;3.58;;;;;;;27.71;60.68;99294.72;4384058;32;20128;-85
2023/06/16 10:07:38;;;;;;;7.50;4.55;;;;;;;27.68;60.68;99286.19;4380882;32;20620;-85
2023/06/16 10:10:08;;;;;;;6.95;5.60;;;;;;;27.83;60.69;99277.31;4405647;32;20086;-86
2023/06/16 10:12:33;;;;;;;5.82;4.10;;;;;;;27.68;60.68;99287.03;4404433;32;20109;-86
2023/06/16 10:14:58;;;;;;;7.87;4.43;;;;;;;27.67;60.68;99282.66;4395416;32;20205;-86
2023/06/16 10:17:24;;;;;;;5.62;4.32;;;;;;;27.74;60.69;99283.69;4394350;32;20109;-84
2023/06/16 10:19:50;;;;;;;6.80;4.75;;;;;;;27.77;60.69;99282.50;4392756;32;20161;-85
2023/06/16 10:22:16;;;;;;;7.47;4.40;;;;;;;27.83;60.69;99281.81;4418234;32;20098;-86
2023/06/16 10:24:41;;;;;;;4.50;3.65;;;;;;;27.46;60.67;99283.19;4395466;32;20247;-87
2023/06/16 10:27:07;;;;;;;5.45;4.20;;;;;;;27.32;60.67;99294.53;4393841;32;24417;-87
2023/06/16 10:29:33;;;;;;;7.97;4.72;;;;;;;26.89;60.65;99290.31;4405806;32;20098;-87
2023/06/16 10:32:08;;;;;;;4.62;3.83;;;;;;;26.85;60.64;99295.13;4404082;32;20401;-87
2023/06/16 10:34:34;;;;;;;6.00;4.30;;;;;;;26.90;60.64;99292.81;4393293;32;20106;-87
2023/06/16 10:37:00;;;;;;;6.68;4.87;;;;;;;26.77;60.64;99294.28;4405131;32;20106;-87
2023/06/16 10:39:25;;;;;;;8.80;4.22;;;;;;;26.84;60.64;99288.12;4408003;32;20094;-86
2023/06/16 10:41:52;;;;;;;7.90;4.28;;;;;;;26.94;60.64;99293.31;4393839;32;35425;-87
2023/06/16 10:44:28;;;;;;;6.57;4.28;;;;;;;26.85;60.64;99292.47;4408021;32;20215;-87
2023/06/16 10:47:08;;;;;;;7.80;4.55;;;;;;;26.79;60.65;99289.63;4421549;32;20089;-88
2023/06/16 10:49:50;;;;;;;6.65;4.87;;;;;;;26.93;60.64;99286.28;4420964;32;20405;-85
2023/06/16 10:52:52;;;;;;;7.05;4.70;;;;;;;26.86;60.64;99290.63;4407597;32;20110;-87
2023/06/16 10:55:32;;;;;;;6.97;4.45;;;;;;;26.76;60.64;99280.09;4389933;32;20165;-86
2023/06/16 10:58:19;;;;;;;9.10;4.60;;;;;;;27.11;60.66;99283.50;4404864;32;20151;-87
2023/06/16 11:01:05;;;;;;;6.47;4.87;;;;;;;27.23;60.66;99278.69;4409506;32;20105;-85
2023/06/16 11:03:33;;;;;;;6.00;4.30;;;;;;;27.52;60.68;99287.03;4373964;32;20090;-86
2023/06/16 11:05:59;;;;;;;7.37;4.55;;;;;;;27.47;60.68;99276.00;4418583;32;20251;-86
2023/06/16 11:08:24;;;;;;;8.32;4.18;;;;;;;27.68;60.68;99273.69;4396973;32;20118;-87
2023/06/16 11:10:55;;;;;;;8.02;4.53;;;;;;;27.86;60.69;99272.62;4383960;32;20564;-85
2023/06/16 11:13:23;;;;;;;5.97;4.20;;;;;;;27.90;60.70;99269.41;4409852;32;20097;-86
2023/06/16 11:15:49;;;;;;;5.12;4.10;;;;;;;27.90;60.70;99269.41;4408267;32;20114;-86
2023/06/16 11:18:14;;;;;;;7.93;3.65;;;;;;;28.09;60.71;99263.69;4423812;32;20180;-85
2023/06/16 11:20:40;;;;;;;5.20;3.85;;;;;;;28.06;60.70;99266.69;4396795;32;20538;-86
2023/06/16 11:23:06;;;;;;;4.95;3.55;;;;;;;28.12;60.70;99267.84;4394585;32;20551;-87
2023/06/16 11:25:32;;;;;;;6.28;4.40;;;;;;;28.23;60.71;99264.81;4418289;32;20094;-86
2023/06/16 11:27:57;;;;;;;9.82;4.75;;;;;;;28.41;60.72;99256.56;4397411;32;32974;-86
2023/06/16 11:30:23;;;;;;;4.72;3.62;;;;;;;28.53;60.73;99260.50;4404506;32;20145;-87